sensor_id;sensor_type;location;lat;lon;timestamp;temperature;humidity
28484;DHT22;15704;48.834;8.736;2022-12-07T00:01:34;2.60;99.90
28484;DHT22;15704;48.834;8.736;2022-12-07T00:04:03;2.60;99.90
28484;DHT22;15704;48.834;8.736;2022-12-07T00:06:38;2.60;99.90
28484;DHT22;15704;48.834;8.736;2022-12-07T00:09:06;2.60;99.90
28484;DHT22;15704;48.834;8.736;2022-12-07T00:11:34;2.60;99.90
28484;DHT22;15704;48.834;8.736;2022-12-07T00:14:03;2.60;99.90
28484;DHT22;15704;48.834;8.736;2022-12-07T00:16:32;2.60;99.90
28484;DHT22;15704;48.834;8.736;2022-12-07T00:18:59;2.60;99.90
28484;DHT22;15704;48.834;8.736;2022-12-07T00:21:28;2.60;99.90
28484;DHT22;15704;48.834;8.736;2022-12-07T00:23:56;2.60;99.90
28484;DHT22;15704;48.834;8.736;2022-12-07T00:26:33;2.70;99.90
28484;DHT22;15704;48.834;8.736;2022-12-07T00:29:06;2.70;99.90
28484;DHT22;15704;48.834;8.736;2022-12-07T00:31:34;2.70;99.90
28484;DHT22;15704;48.834;8.736;2022-12-07T00:34:02;2.70;99.90
28484;DHT22;15704;48.834;8.736;2022-12-07T00:36:29;2.70;99.90
28484;DHT22;15704;48.834;8.736;2022-12-07T00:38:59;2.60;99.90
28484;DHT22;15704;48.834;8.736;2022-12-07T00:41:27;2.60;99.90
28484;DHT22;15704;48.834;8.736;2022-12-07T00:43:54;2.60;99.90
28484;DHT22;15704;48.834;8.736;2022-12-07T00:46:22;2.70;99.90
28484;DHT22;15704;48.834;8.736;2022-12-07T00:48:49;2.50;99.90
28484;DHT22;15704;48.834;8.736;2022-12-07T00:51:18;2.50;99.90
28484;DHT22;15704;48.834;8.736;2022-12-07T00:53:45;2.60;99.90
28484;DHT22;15704;48.834;8.736;2022-12-07T00:56:15;2.50;99.90
28484;DHT22;15704;48.834;8.736;2022-12-07T00:58:42;2.60;99.90
28484;DHT22;15704;48.834;8.736;2022-12-07T01:01:09;2.60;99.90
28484;DHT22;15704;48.834;8.736;2022-12-07T01:03:37;2.70;99.90
28484;DHT22;15704;48.834;8.736;2022-12-07T01:06:05;2.70;99.90
28484;DHT22;15704;48.834;8.736;2022-12-07T01:08:32;2.80;99.90
28484;DHT22;15704;48.834;8.736;2022-12-07T01:11:06;2.70;99.90
28484;DHT22;15704;48.834;8.736;2022-12-07T01:13:34;2.80;99.90
28484;DHT22;15704;48.834;8.736;2022-12-07T01:16:04;2.80;99.90
28484;DHT22;15704;48.834;8.736;2022-12-07T01:18:33;2.70;99.90
28484;DHT22;15704;48.834;8.736;2022-12-07T01:21:04;2.60;99.90
28484;DHT22;15704;48.834;8.736;2022-12-07T01:23:32;2.60;99.90
28484;DHT22;15704;48.834;8.736;2022-12-07T01:26:01;2.60;99.90
28484;DHT22;15704;48.834;8.736;2022-12-07T01:28:28;2.50;99.90
28484;DHT22;15704;48.834;8.736;2022-12-07T01:31:06;2.60;99.90
28484;DHT22;15704;48.834;8.736;2022-12-07T01:33:35;2.60;99.90
28484;DHT22;15704;48.834;8.736;2022-12-07T01:36:14;2.60;99.90
28484;DHT22;15704;48.834;8.736;2022-12-07T01:38:41;2.60;99.90
28484;DHT22;15704;48.834;8.736;2022-12-07T01:41:07;2.60;99.90
28484;DHT22;15704;48.834;8.736;2022-12-07T01:43:34;2.60;99.90
28484;DHT22;15704;48.834;8.736;2022-12-07T01:46:03;2.60;99.90
28484;DHT22;15704;48.834;8.736;2022-12-07T01:48:39;2.60;99.90
28484;DHT22;15704;48.834;8.736;2022-12-07T01:51:13;2.60;99.90
28484;DHT22;15704;48.834;8.736;2022-12-07T01:53:43;2.50;99.90
28484;DHT22;15704;48.834;8.736;2022-12-07T01:56:14;2.50;99.90
28484;DHT22;15704;48.834;8.736;2022-12-07T01:58:44;2.50;99.90
28484;DHT22;15704;48.834;8.736;2022-12-07T02:01:11;2.50;99.90
28484;DHT22;15704;48.834;8.736;2022-12-07T02:03:41;2.40;99.90
28484;DHT22;15704;48.834;8.736;2022-12-07T02:06:11;2.40;99.90
28484;DHT22;15704;48.834;8.736;2022-12-07T02:08:38;2.40;99.90
28484;DHT22;15704;48.834;8.736;2022-12-07T02:11:07;2.40;99.90
28484;DHT22;15704;48.834;8.736;2022-12-07T02:13:36;2.40;99.90
28484;DHT22;15704;48.834;8.736;2022-12-07T02:16:25;2.40;99.90
28484;DHT22;15704;48.834;8.736;2022-12-07T02:24:14;2.20;99.90
28484;DHT22;15704;48.834;8.736;2022-12-07T02:29:35;2.20;99.90
28484;DHT22;15704;48.834;8.736;2022-12-07T02:32:23;2.20;99.90
28484;DHT22;15704;48.834;8.736;2022-12-07T02:40:39;2.20;99.90
28484;DHT22;15704;48.834;8.736;2022-12-07T02:45:41;2.20;99.90
28484;DHT22;15704;48.834;8.736;2022-12-07T02:48:10;2.30;99.90
28484;DHT22;15704;48.834;8.736;2022-12-07T02:50:38;2.30;99.90
28484;DHT22;15704;48.834;8.736;2022-12-07T02:53:05;2.30;99.90
28484;DHT22;15704;48.834;8.736;2022-12-07T02:55:38;2.40;99.90
28484;DHT22;15704;48.834;8.736;2022-12-07T02:58:20;2.40;99.90
28484;DHT22;15704;48.834;8.736;2022-12-07T03:01:03;2.30;99.90
28484;DHT22;15704;48.834;8.736;2022-12-07T03:03:35;2.40;99.90
28484;DHT22;15704;48.834;8.736;2022-12-07T03:06:13;2.40;99.90
28484;DHT22;15704;48.834;8.736;2022-12-07T03:09:12;2.40;99.90
28484;DHT22;15704;48.834;8.736;2022-12-07T03:11:50;2.40;99.90
28484;DHT22;15704;48.834;8.736;2022-12-07T03:14:30;2.40;99.90
28484;DHT22;15704;48.834;8.736;2022-12-07T03:17:17;2.40;99.90
28484;DHT22;15704;48.834;8.736;2022-12-07T03:19:46;2.40;99.90
28484;DHT22;15704;48.834;8.736;2022-12-07T03:22:16;2.50;99.90
28484;DHT22;15704;48.834;8.736;2022-12-07T03:24:48;2.50;99.90
28484;DHT22;15704;48.834;8.736;2022-12-07T03:27:22;2.50;99.90
28484;DHT22;15704;48.834;8.736;2022-12-07T03:30:15;2.50;99.90
28484;DHT22;15704;48.834;8.736;2022-12-07T03:32:50;2.40;99.90
28484;DHT22;15704;48.834;8.736;2022-12-07T03:35:29;2.40;99.90
28484;DHT22;15704;48.834;8.736;2022-12-07T03:38:10;2.40;99.90
28484;DHT22;15704;48.834;8.736;2022-12-07T03:41:00;2.40;99.90
28484;DHT22;15704;48.834;8.736;2022-12-07T03:43:30;2.40;99.90
28484;DHT22;15704;48.834;8.736;2022-12-07T03:46:27;2.40;99.90
28484;DHT22;15704;48.834;8.736;2022-12-07T03:48:59;2.50;99.90
28484;DHT22;15704;48.834;8.736;2022-12-07T03:54:02;2.50;99.90
28484;DHT22;15704;48.834;8.736;2022-12-07T03:56:32;2.40;99.90
28484;DHT22;15704;48.834;8.736;2022-12-07T03:58:58;2.50;99.90
28484;DHT22;15704;48.834;8.736;2022-12-07T04:01:25;2.50;99.90
28484;DHT22;15704;48.834;8.736;2022-12-07T04:03:52;2.50;99.90
28484;DHT22;15704;48.834;8.736;2022-12-07T04:06:19;2.50;99.90
28484;DHT22;15704;48.834;8.736;2022-12-07T04:08:45;2.50;99.90
28484;DHT22;15704;48.834;8.736;2022-12-07T04:11:12;2.50;99.90
28484;DHT22;15704;48.834;8.736;2022-12-07T04:13:39;2.40;99.90
28484;DHT22;15704;48.834;8.736;2022-12-07T04:16:24;2.50;99.90
28484;DHT22;15704;48.834;8.736;2022-12-07T04:18:51;2.40;99.90
28484;DHT22;15704;48.834;8.736;2022-12-07T04:21:17;2.40;99.90
28484;DHT22;15704;48.834;8.736;2022-12-07T04:23:44;2.30;99.90
28484;DHT22;15704;48.834;8.736;2022-12-07T04:26:11;2.10;99.90
28484;DHT22;15704;48.834;8.736;2022-12-07T04:28:37;2.00;99.90
28484;DHT22;15704;48.834;8.736;2022-12-07T04:31:04;1.90;99.90
28484;DHT22;15704;48.834;8.736;2022-12-07T04:33:31;1.80;99.90
28484;DHT22;15704;48.834;8.736;2022-12-07T04:35:57;1.80;99.90
28484;DHT22;15704;48.834;8.736;2022-12-07T04:38:24;1.70;99.90
28484;DHT22;15704;48.834;8.736;2022-12-07T04:40:51;1.70;99.90
28484;DHT22;15704;48.834;8.736;2022-12-07T04:43:17;1.60;99.90
28484;DHT22;15704;48.834;8.736;2022-12-07T04:45:47;1.60;99.90
28484;DHT22;15704;48.834;8.736;2022-12-07T04:48:14;1.60;99.90
28484;DHT22;15704;48.834;8.736;2022-12-07T04:50:41;1.50;99.90
28484;DHT22;15704;48.834;8.736;2022-12-07T04:53:12;1.40;99.90
28484;DHT22;15704;48.834;8.736;2022-12-07T04:55:38;1.40;99.90
28484;DHT22;15704;48.834;8.736;2022-12-07T04:58:05;1.30;99.90
28484;DHT22;15704;48.834;8.736;2022-12-07T05:00:32;1.30;99.90
28484;DHT22;15704;48.834;8.736;2022-12-07T05:02:59;1.20;99.90
28484;DHT22;15704;48.834;8.736;2022-12-07T05:05:25;1.20;99.90
28484;DHT22;15704;48.834;8.736;2022-12-07T05:07:52;1.20;99.90
28484;DHT22;15704;48.834;8.736;2022-12-07T05:10:19;1.20;99.90
28484;DHT22;15704;48.834;8.736;2022-12-07T05:12:46;1.20;99.90
28484;DHT22;15704;48.834;8.736;2022-12-07T05:15:14;1.20;99.90
28484;DHT22;15704;48.834;8.736;2022-12-07T05:17:41;1.20;99.90
28484;DHT22;15704;48.834;8.736;2022-12-07T05:20:08;1.30;99.90
28484;DHT22;15704;48.834;8.736;2022-12-07T05:22:35;1.30;99.90
28484;DHT22;15704;48.834;8.736;2022-12-07T05:25:02;1.30;99.90
28484;DHT22;15704;48.834;8.736;2022-12-07T05:27:29;1.30;99.90
28484;DHT22;15704;48.834;8.736;2022-12-07T05:29:55;1.20;99.90
28484;DHT22;15704;48.834;8.736;2022-12-07T05:32:22;1.20;99.90
28484;DHT22;15704;48.834;8.736;2022-12-07T05:34:49;1.20;99.90
28484;DHT22;15704;48.834;8.736;2022-12-07T05:37:15;1.20;99.90
28484;DHT22;15704;48.834;8.736;2022-12-07T05:39:42;1.20;99.90
28484;DHT22;15704;48.834;8.736;2022-12-07T05:42:10;1.20;99.90
28484;DHT22;15704;48.834;8.736;2022-12-07T05:44:44;1.20;99.90
28484;DHT22;15704;48.834;8.736;2022-12-07T05:47:13;1.30;99.90
28484;DHT22;15704;48.834;8.736;2022-12-07T05:49:40;1.30;99.90
28484;DHT22;15704;48.834;8.736;2022-12-07T05:52:07;1.30;99.90
28484;DHT22;15704;48.834;8.736;2022-12-07T05:54:34;1.40;99.90
28484;DHT22;15704;48.834;8.736;2022-12-07T05:57:00;1.30;99.90
28484;DHT22;15704;48.834;8.736;2022-12-07T05:59:27;1.40;99.90
28484;DHT22;15704;48.834;8.736;2022-12-07T06:01:58;1.40;99.90
28484;DHT22;15704;48.834;8.736;2022-12-07T06:04:28;1.40;99.90
28484;DHT22;15704;48.834;8.736;2022-12-07T06:06:55;1.40;99.90
28484;DHT22;15704;48.834;8.736;2022-12-07T06:09:24;1.40;99.90
28484;DHT22;15704;48.834;8.736;2022-12-07T06:11:51;1.50;99.90
28484;DHT22;15704;48.834;8.736;2022-12-07T06:14:37;1.50;99.90
28484;DHT22;15704;48.834;8.736;2022-12-07T06:17:04;1.50;99.90
28484;DHT22;15704;48.834;8.736;2022-12-07T06:19:31;1.50;99.90
28484;DHT22;15704;48.834;8.736;2022-12-07T06:21:58;1.60;99.90
28484;DHT22;15704;48.834;8.736;2022-12-07T06:24:25;1.50;99.90
28484;DHT22;15704;48.834;8.736;2022-12-07T06:26:52;1.60;99.90
28484;DHT22;15704;48.834;8.736;2022-12-07T06:29:19;1.70;99.90
28484;DHT22;15704;48.834;8.736;2022-12-07T06:31:46;1.70;99.90
28484;DHT22;15704;48.834;8.736;2022-12-07T06:34:15;1.80;99.90
28484;DHT22;15704;48.834;8.736;2022-12-07T06:36:43;1.80;99.90
28484;DHT22;15704;48.834;8.736;2022-12-07T06:39:10;1.80;99.90
28484;DHT22;15704;48.834;8.736;2022-12-07T06:41:39;1.80;99.90
28484;DHT22;15704;48.834;8.736;2022-12-07T06:44:06;1.80;99.90
28484;DHT22;15704;48.834;8.736;2022-12-07T06:46:33;1.90;99.90
28484;DHT22;15704;48.834;8.736;2022-12-07T06:49:02;1.90;99.90
28484;DHT22;15704;48.834;8.736;2022-12-07T06:51:29;1.90;99.90
28484;DHT22;15704;48.834;8.736;2022-12-07T06:53:56;1.90;99.90
28484;DHT22;15704;48.834;8.736;2022-12-07T06:56:22;2.00;99.90
28484;DHT22;15704;48.834;8.736;2022-12-07T06:58:49;2.00;99.90
28484;DHT22;15704;48.834;8.736;2022-12-07T07:01:18;2.00;99.90
28484;DHT22;15704;48.834;8.736;2022-12-07T07:03:45;2.00;99.90
28484;DHT22;15704;48.834;8.736;2022-12-07T07:06:13;2.00;99.90
28484;DHT22;15704;48.834;8.736;2022-12-07T07:08:40;1.90;99.90
28484;DHT22;15704;48.834;8.736;2022-12-07T07:11:08;2.00;99.90
28484;DHT22;15704;48.834;8.736;2022-12-07T07:13:35;1.90;99.90
28484;DHT22;15704;48.834;8.736;2022-12-07T07:16:02;1.90;99.90
28484;DHT22;15704;48.834;8.736;2022-12-07T07:18:29;1.90;99.90
28484;DHT22;15704;48.834;8.736;2022-12-07T07:20:56;2.00;99.90
28484;DHT22;15704;48.834;8.736;2022-12-07T07:23:23;2.00;99.90
28484;DHT22;15704;48.834;8.736;2022-12-07T07:25:50;2.00;99.90
28484;DHT22;15704;48.834;8.736;2022-12-07T07:28:17;1.90;99.90
28484;DHT22;15704;48.834;8.736;2022-12-07T07:30:44;2.00;99.90
28484;DHT22;15704;48.834;8.736;2022-12-07T07:33:11;2.00;99.90
28484;DHT22;15704;48.834;8.736;2022-12-07T07:35:39;2.00;99.90
28484;DHT22;15704;48.834;8.736;2022-12-07T07:38:06;2.00;99.90
28484;DHT22;15704;48.834;8.736;2022-12-07T07:40:32;2.10;99.90
28484;DHT22;15704;48.834;8.736;2022-12-07T07:42:59;2.00;99.90
28484;DHT22;15704;48.834;8.736;2022-12-07T07:45:27;2.00;99.90
28484;DHT22;15704;48.834;8.736;2022-12-07T07:47:53;2.00;99.90
28484;DHT22;15704;48.834;8.736;2022-12-07T07:50:21;2.00;99.90
28484;DHT22;15704;48.834;8.736;2022-12-07T07:52:48;2.00;99.90
28484;DHT22;15704;48.834;8.736;2022-12-07T07:55:15;2.10;99.90
28484;DHT22;15704;48.834;8.736;2022-12-07T07:57:42;2.10;99.90
28484;DHT22;15704;48.834;8.736;2022-12-07T08:00:13;2.10;99.90
28484;DHT22;15704;48.834;8.736;2022-12-07T08:02:41;2.10;99.90
28484;DHT22;15704;48.834;8.736;2022-12-07T08:05:10;2.10;99.90
28484;DHT22;15704;48.834;8.736;2022-12-07T08:07:37;2.20;99.90
28484;DHT22;15704;48.834;8.736;2022-12-07T08:10:05;2.20;99.90
28484;DHT22;15704;48.834;8.736;2022-12-07T08:12:36;2.20;99.90
28484;DHT22;15704;48.834;8.736;2022-12-07T08:15:03;2.30;99.90
28484;DHT22;15704;48.834;8.736;2022-12-07T08:17:30;2.30;99.90
28484;DHT22;15704;48.834;8.736;2022-12-07T08:19:57;2.30;99.90
28484;DHT22;15704;48.834;8.736;2022-12-07T08:22:23;2.30;99.90
28484;DHT22;15704;48.834;8.736;2022-12-07T08:24:50;2.30;99.90
28484;DHT22;15704;48.834;8.736;2022-12-07T08:27:17;2.30;99.90
28484;DHT22;15704;48.834;8.736;2022-12-07T08:29:44;2.30;99.90
28484;DHT22;15704;48.834;8.736;2022-12-07T08:32:10;2.40;99.90
28484;DHT22;15704;48.834;8.736;2022-12-07T08:34:37;2.40;99.90
28484;DHT22;15704;48.834;8.736;2022-12-07T08:37:04;2.30;99.90
28484;DHT22;15704;48.834;8.736;2022-12-07T08:39:30;2.40;99.90
28484;DHT22;15704;48.834;8.736;2022-12-07T08:41:58;2.40;99.90
28484;DHT22;15704;48.834;8.736;2022-12-07T08:44:25;2.50;99.90
28484;DHT22;15704;48.834;8.736;2022-12-07T08:47:00;2.40;99.90
28484;DHT22;15704;48.834;8.736;2022-12-07T08:49:31;2.40;99.90
28484;DHT22;15704;48.834;8.736;2022-12-07T08:51:59;2.40;99.90
28484;DHT22;15704;48.834;8.736;2022-12-07T08:54:26;2.40;99.90
28484;DHT22;15704;48.834;8.736;2022-12-07T08:56:55;2.50;99.90
28484;DHT22;15704;48.834;8.736;2022-12-07T08:59:26;2.50;99.90
28484;DHT22;15704;48.834;8.736;2022-12-07T09:01:53;2.50;99.90
28484;DHT22;15704;48.834;8.736;2022-12-07T09:04:20;2.60;99.90
28484;DHT22;15704;48.834;8.736;2022-12-07T09:06:47;2.50;99.90
28484;DHT22;15704;48.834;8.736;2022-12-07T09:09:15;2.50;99.90
28484;DHT22;15704;48.834;8.736;2022-12-07T09:11:42;2.50;99.90
28484;DHT22;15704;48.834;8.736;2022-12-07T09:14:09;2.50;99.90
28484;DHT22;15704;48.834;8.736;2022-12-07T09:16:35;2.50;99.90
28484;DHT22;15704;48.834;8.736;2022-12-07T09:19:02;2.50;99.90
28484;DHT22;15704;48.834;8.736;2022-12-07T09:21:29;2.50;99.90
28484;DHT22;15704;48.834;8.736;2022-12-07T09:23:56;2.70;99.90
28484;DHT22;15704;48.834;8.736;2022-12-07T09:26:22;2.70;99.90
28484;DHT22;15704;48.834;8.736;2022-12-07T09:28:49;2.90;99.90
28484;DHT22;15704;48.834;8.736;2022-12-07T09:31:16;3.00;99.90
28484;DHT22;15704;48.834;8.736;2022-12-07T09:33:59;2.90;99.90
28484;DHT22;15704;48.834;8.736;2022-12-07T09:36:27;2.80;99.90
28484;DHT22;15704;48.834;8.736;2022-12-07T09:38:55;2.80;99.90
28484;DHT22;15704;48.834;8.736;2022-12-07T09:41:23;2.80;99.90
28484;DHT22;15704;48.834;8.736;2022-12-07T09:43:51;2.90;99.90
28484;DHT22;15704;48.834;8.736;2022-12-07T09:46:20;2.80;99.90
28484;DHT22;15704;48.834;8.736;2022-12-07T09:48:49;2.80;99.90
28484;DHT22;15704;48.834;8.736;2022-12-07T09:51:18;2.90;99.90
28484;DHT22;15704;48.834;8.736;2022-12-07T09:53:51;2.90;99.90
28484;DHT22;15704;48.834;8.736;2022-12-07T09:56:19;2.90;99.90
28484;DHT22;15704;48.834;8.736;2022-12-07T09:58:46;3.10;99.90
28484;DHT22;15704;48.834;8.736;2022-12-07T10:01:15;3.10;99.90
28484;DHT22;15704;48.834;8.736;2022-12-07T10:03:53;3.10;99.90
28484;DHT22;15704;48.834;8.736;2022-12-07T10:06:20;3.30;99.90
28484;DHT22;15704;48.834;8.736;2022-12-07T10:08:47;3.40;99.90
28484;DHT22;15704;48.834;8.736;2022-12-07T10:11:14;3.30;99.90
28484;DHT22;15704;48.834;8.736;2022-12-07T10:13:45;3.30;99.90
28484;DHT22;15704;48.834;8.736;2022-12-07T10:16:40;3.60;99.90
28484;DHT22;15704;48.834;8.736;2022-12-07T10:19:26;3.70;99.90
28484;DHT22;15704;48.834;8.736;2022-12-07T10:22:23;3.80;99.90
28484;DHT22;15704;48.834;8.736;2022-12-07T10:25:08;3.90;99.90
28484;DHT22;15704;48.834;8.736;2022-12-07T10:27:35;3.90;99.90
28484;DHT22;15704;48.834;8.736;2022-12-07T10:30:07;3.60;99.90
28484;DHT22;15704;48.834;8.736;2022-12-07T10:32:35;3.60;99.90
28484;DHT22;15704;48.834;8.736;2022-12-07T10:35:28;3.80;99.90
28484;DHT22;15704;48.834;8.736;2022-12-07T10:37:57;3.60;99.90
28484;DHT22;15704;48.834;8.736;2022-12-07T10:40:35;3.60;99.90
28484;DHT22;15704;48.834;8.736;2022-12-07T10:45:32;3.60;99.90
28484;DHT22;15704;48.834;8.736;2022-12-07T10:48:19;3.70;99.90
28484;DHT22;15704;48.834;8.736;2022-12-07T10:56:00;3.80;99.90
28484;DHT22;15704;48.834;8.736;2022-12-07T11:01:33;3.50;99.90
28484;DHT22;15704;48.834;8.736;2022-12-07T11:04:13;3.30;99.90
28484;DHT22;15704;48.834;8.736;2022-12-07T11:10:00;3.30;99.90
28484;DHT22;15704;48.834;8.736;2022-12-07T11:12:59;3.50;99.90
28484;DHT22;15704;48.834;8.736;2022-12-07T11:37:51;3.60;99.90
28484;DHT22;15704;48.834;8.736;2022-12-07T11:40:26;3.50;99.90
28484;DHT22;15704;48.834;8.736;2022-12-07T11:43:29;3.50;99.90
28484;DHT22;15704;48.834;8.736;2022-12-07T11:46:05;3.70;99.90
28484;DHT22;15704;48.834;8.736;2022-12-07T11:48:37;3.50;99.90
28484;DHT22;15704;48.834;8.736;2022-12-07T11:51:05;3.50;99.90
28484;DHT22;15704;48.834;8.736;2022-12-07T11:56:17;3.60;99.90
28484;DHT22;15704;48.834;8.736;2022-12-07T12:06:42;3.50;99.90
28484;DHT22;15704;48.834;8.736;2022-12-07T12:09:19;3.70;99.90
28484;DHT22;15704;48.834;8.736;2022-12-07T12:20:44;4.20;99.90
28484;DHT22;15704;48.834;8.736;2022-12-07T12:26:27;3.90;99.90
28484;DHT22;15704;48.834;8.736;2022-12-07T12:33:55;3.90;99.90
28484;DHT22;15704;48.834;8.736;2022-12-07T12:39:12;3.80;99.90
28484;DHT22;15704;48.834;8.736;2022-12-07T12:46:59;3.60;99.90
28484;DHT22;15704;48.834;8.736;2022-12-07T12:52:01;3.60;99.90
28484;DHT22;15704;48.834;8.736;2022-12-07T12:57:36;4.20;99.90
28484;DHT22;15704;48.834;8.736;2022-12-07T13:00:19;4.10;99.90
28484;DHT22;15704;48.834;8.736;2022-12-07T13:02:54;3.60;99.90
28484;DHT22;15704;48.834;8.736;2022-12-07T13:05:27;3.60;99.90
28484;DHT22;15704;48.834;8.736;2022-12-07T13:15:48;3.40;99.90
28484;DHT22;15704;48.834;8.736;2022-12-07T13:26:35;3.20;99.90
28484;DHT22;15704;48.834;8.736;2022-12-07T13:29:12;3.30;99.90
28484;DHT22;15704;48.834;8.736;2022-12-07T13:31:48;3.20;99.90
28484;DHT22;15704;48.834;8.736;2022-12-07T13:37:24;3.00;99.90
28484;DHT22;15704;48.834;8.736;2022-12-07T13:39:58;3.10;99.90
28484;DHT22;15704;48.834;8.736;2022-12-07T13:44:58;3.20;99.90
28484;DHT22;15704;48.834;8.736;2022-12-07T13:47:41;3.40;99.90
28484;DHT22;15704;48.834;8.736;2022-12-07T13:50:26;3.30;99.90
28484;DHT22;15704;48.834;8.736;2022-12-07T13:52:57;3.40;99.90
28484;DHT22;15704;48.834;8.736;2022-12-07T13:55:25;3.30;99.90
28484;DHT22;15704;48.834;8.736;2022-12-07T13:57:53;3.40;99.90
28484;DHT22;15704;48.834;8.736;2022-12-07T14:00:21;3.40;99.90
28484;DHT22;15704;48.834;8.736;2022-12-07T14:02:56;3.50;99.90
28484;DHT22;15704;48.834;8.736;2022-12-07T14:10:41;3.50;99.90
28484;DHT22;15704;48.834;8.736;2022-12-07T14:13:31;3.50;99.90
28484;DHT22;15704;48.834;8.736;2022-12-07T14:15:59;3.40;99.90
28484;DHT22;15704;48.834;8.736;2022-12-07T14:18:27;3.40;99.90
28484;DHT22;15704;48.834;8.736;2022-12-07T14:21:15;3.30;99.90
28484;DHT22;15704;48.834;8.736;2022-12-07T14:23:43;3.10;99.90
28484;DHT22;15704;48.834;8.736;2022-12-07T14:26:20;3.00;99.90
28484;DHT22;15704;48.834;8.736;2022-12-07T14:28:47;2.90;99.90
28484;DHT22;15704;48.834;8.736;2022-12-07T14:31:16;2.80;99.90
28484;DHT22;15704;48.834;8.736;2022-12-07T14:33:59;2.80;99.90
28484;DHT22;15704;48.834;8.736;2022-12-07T14:36:25;2.80;99.90
28484;DHT22;15704;48.834;8.736;2022-12-07T14:38:52;2.80;99.90
28484;DHT22;15704;48.834;8.736;2022-12-07T14:41:22;2.80;99.90
28484;DHT22;15704;48.834;8.736;2022-12-07T14:44:12;2.70;99.90
28484;DHT22;15704;48.834;8.736;2022-12-07T14:46:59;2.70;99.90
28484;DHT22;15704;48.834;8.736;2022-12-07T14:49:45;2.60;99.90
28484;DHT22;15704;48.834;8.736;2022-12-07T14:52:21;2.70;99.90
28484;DHT22;15704;48.834;8.736;2022-12-07T14:55:14;2.70;99.90
28484;DHT22;15704;48.834;8.736;2022-12-07T14:57:41;2.70;99.90
28484;DHT22;15704;48.834;8.736;2022-12-07T15:00:09;2.60;99.90
28484;DHT22;15704;48.834;8.736;2022-12-07T15:02:39;2.60;99.90
28484;DHT22;15704;48.834;8.736;2022-12-07T15:05:06;2.50;99.90
28484;DHT22;15704;48.834;8.736;2022-12-07T15:07:41;2.40;99.90
28484;DHT22;15704;48.834;8.736;2022-12-07T15:10:17;2.40;99.90
28484;DHT22;15704;48.834;8.736;2022-12-07T15:12:49;2.40;99.90
28484;DHT22;15704;48.834;8.736;2022-12-07T15:15:16;2.40;99.90
28484;DHT22;15704;48.834;8.736;2022-12-07T15:17:44;2.50;99.90
28484;DHT22;15704;48.834;8.736;2022-12-07T15:20:14;2.50;99.90
28484;DHT22;15704;48.834;8.736;2022-12-07T15:22:43;2.60;99.90
28484;DHT22;15704;48.834;8.736;2022-12-07T15:25:13;2.50;99.90
28484;DHT22;15704;48.834;8.736;2022-12-07T15:27:40;2.50;99.90
28484;DHT22;15704;48.834;8.736;2022-12-07T15:30:07;2.50;99.90
28484;DHT22;15704;48.834;8.736;2022-12-07T15:32:33;2.40;99.90
28484;DHT22;15704;48.834;8.736;2022-12-07T15:35:00;2.40;99.90
28484;DHT22;15704;48.834;8.736;2022-12-07T15:37:28;2.50;99.90
28484;DHT22;15704;48.834;8.736;2022-12-07T15:39:54;2.50;99.90
28484;DHT22;15704;48.834;8.736;2022-12-07T15:42:21;2.50;99.90
28484;DHT22;15704;48.834;8.736;2022-12-07T15:44:48;2.50;99.90
28484;DHT22;15704;48.834;8.736;2022-12-07T15:47:39;2.50;99.90
28484;DHT22;15704;48.834;8.736;2022-12-07T15:50:26;2.40;99.90
28484;DHT22;15704;48.834;8.736;2022-12-07T15:52:53;2.50;99.90
28484;DHT22;15704;48.834;8.736;2022-12-07T15:55:20;2.30;99.90
28484;DHT22;15704;48.834;8.736;2022-12-07T15:57:46;2.40;99.90
28484;DHT22;15704;48.834;8.736;2022-12-07T16:00:13;2.40;99.90
28484;DHT22;15704;48.834;8.736;2022-12-07T16:02:40;2.20;99.90
28484;DHT22;15704;48.834;8.736;2022-12-07T16:05:07;2.20;99.90
28484;DHT22;15704;48.834;8.736;2022-12-07T16:07:34;2.00;99.90
28484;DHT22;15704;48.834;8.736;2022-12-07T16:10:01;1.90;99.90
28484;DHT22;15704;48.834;8.736;2022-12-07T16:12:27;1.80;99.90
28484;DHT22;15704;48.834;8.736;2022-12-07T16:14:54;1.80;99.90
28484;DHT22;15704;48.834;8.736;2022-12-07T16:17:21;1.90;99.90
28484;DHT22;15704;48.834;8.736;2022-12-07T16:19:48;2.00;99.90
28484;DHT22;15704;48.834;8.736;2022-12-07T16:22:14;2.00;99.90
28484;DHT22;15704;48.834;8.736;2022-12-07T16:24:41;1.90;99.90
28484;DHT22;15704;48.834;8.736;2022-12-07T16:27:08;1.90;99.90
28484;DHT22;15704;48.834;8.736;2022-12-07T16:29:35;1.90;99.90
28484;DHT22;15704;48.834;8.736;2022-12-07T16:32:01;2.00;99.90
28484;DHT22;15704;48.834;8.736;2022-12-07T16:34:28;2.00;99.90
28484;DHT22;15704;48.834;8.736;2022-12-07T16:36:55;2.10;99.90
28484;DHT22;15704;48.834;8.736;2022-12-07T16:39:32;2.20;99.90
28484;DHT22;15704;48.834;8.736;2022-12-07T16:41:59;2.10;99.90
28484;DHT22;15704;48.834;8.736;2022-12-07T16:44:26;2.20;99.90
28484;DHT22;15704;48.834;8.736;2022-12-07T16:46:52;2.20;99.90
28484;DHT22;15704;48.834;8.736;2022-12-07T16:49:19;2.20;99.90
28484;DHT22;15704;48.834;8.736;2022-12-07T16:51:49;2.20;99.90
28484;DHT22;15704;48.834;8.736;2022-12-07T16:54:36;2.30;99.90
28484;DHT22;15704;48.834;8.736;2022-12-07T16:57:03;2.30;99.90
28484;DHT22;15704;48.834;8.736;2022-12-07T16:59:30;2.30;99.90
28484;DHT22;15704;48.834;8.736;2022-12-07T17:01:56;2.30;99.90
28484;DHT22;15704;48.834;8.736;2022-12-07T17:04:23;2.30;99.90
28484;DHT22;15704;48.834;8.736;2022-12-07T17:06:50;2.40;99.90
28484;DHT22;15704;48.834;8.736;2022-12-07T17:09:17;2.40;99.90
28484;DHT22;15704;48.834;8.736;2022-12-07T17:11:47;2.60;99.90
28484;DHT22;15704;48.834;8.736;2022-12-07T17:14:14;2.40;99.90
28484;DHT22;15704;48.834;8.736;2022-12-07T17:17:00;2.40;99.90
28484;DHT22;15704;48.834;8.736;2022-12-07T17:19:26;2.40;99.90
28484;DHT22;15704;48.834;8.736;2022-12-07T17:21:53;2.40;99.90
28484;DHT22;15704;48.834;8.736;2022-12-07T17:24:20;2.30;99.90
28484;DHT22;15704;48.834;8.736;2022-12-07T17:26:46;2.40;99.90
28484;DHT22;15704;48.834;8.736;2022-12-07T17:29:16;2.40;99.90
28484;DHT22;15704;48.834;8.736;2022-12-07T17:31:44;2.40;99.90
28484;DHT22;15704;48.834;8.736;2022-12-07T17:34:17;2.40;99.90
28484;DHT22;15704;48.834;8.736;2022-12-07T17:36:43;2.30;99.90
28484;DHT22;15704;48.834;8.736;2022-12-07T17:39:14;2.30;99.90
28484;DHT22;15704;48.834;8.736;2022-12-07T17:41:42;2.30;99.90
28484;DHT22;15704;48.834;8.736;2022-12-07T17:44:28;2.30;99.90
28484;DHT22;15704;48.834;8.736;2022-12-07T17:46:55;2.30;99.90
28484;DHT22;15704;48.834;8.736;2022-12-07T17:49:25;2.40;99.90
28484;DHT22;15704;48.834;8.736;2022-12-07T17:51:51;2.30;99.90
28484;DHT22;15704;48.834;8.736;2022-12-07T17:54:37;2.40;99.90
28484;DHT22;15704;48.834;8.736;2022-12-07T17:57:04;2.40;99.90
28484;DHT22;15704;48.834;8.736;2022-12-07T17:59:30;2.30;99.90
28484;DHT22;15704;48.834;8.736;2022-12-07T18:01:57;2.30;99.90
28484;DHT22;15704;48.834;8.736;2022-12-07T18:04:24;2.30;99.90
28484;DHT22;15704;48.834;8.736;2022-12-07T18:06:51;2.40;99.90
28484;DHT22;15704;48.834;8.736;2022-12-07T18:09:18;2.40;99.90